Cap Jackson — A8VL6 — position and weather

sailwx.info

Track history (hours):
 
Tides and Currents Weather Stations Pressure Air Temp Water Temp Dewpoint Dewpoint Depression Visibility Wind Speed Wind Dir Waves Ship Positions

Cap Jackson

Last reported at 2018-Jan-17 19:00 UTC. Time now 2018-Jan-18 04:08 UTC.
Position N 43°24' E 010°06'.

Length 264 m; draft 11 m.

Type: Ship (hazmat cat A). MMSI: 636092020.

Wind from 350 at 18 knots

Barometer 1012.0 mb
Air temperature 12.5 ° C
Visibility: greater than 5.4 NM
Dewpoint 3.6 ° C
Water temperature 13.0 ° C

Date/timePositionNaut miles runAvg speedWind from/ knotsBaromVisibWave heightAir tempDewpointWater temp
2018-Jan-17 19:00N 43°24' E 010°06'7 1.1 350 / 181012.0 5.4 12.5 3.613.0
2018-Jan-17 12:00N 43°18' E 010°12'4 0.4 280 / 421004.4 5.4 16.5 5.313.0
2018-Jan-17 00:00N 43°18' E 010°06'7 1.9 230 / 381003.9 5.4 15.2 9.813.0
2018-Jan-16 20:00N 43°12' E 010°00'13810.6 240 / 601006.0 2.2 15.010.313.0
2018-Jan-16 07:00N 40°54' E 010°00'11816.9 250 / 231018.0 5.4 15.010.313.0
2018-Jan-16 00:00N 39°00' E 009°18'35 2.0 280 / 191024.710.8 13.2 9.313.0
2018-Jan-15 07:00N 38°48' E 008°36'10314.7 270 / 131020.510.8 15.011.3
2018-Jan-15 00:00N 38°54' E 006°24'509101.8 250 / 91020.310.8 14.6 9.413.0
2018-Jan-14 19:00N 38°54' W 004°30'29442.0 260 / 131016.510.8 15.513.214.0
2018-Jan-14 12:00N 39°12' E 001°48'367 7.1 280 / 171016.310.8 15.0 8.314.0
2018-Jan-12 08:37N 36°03' W 004°50'218.5
2018-Jan-12 08:30N 36°03' W 004°52'1019.4
2018-Jan-12 08:00N 36°01' W 005°04'1019.8
2018-Jan-12 07:31N 35°60' W 005°16'1019.6
2018-Jan-12 07:00N 35°57' W 005°27'4 7.1
2018-Jan-12 06:31N 35°54' W 005°30'0 0.1
2018-Jan-12 05:59N 35°54' W 005°30'0 0.0
2018-Jan-12 05:28N 35°54' W 005°30'0 0.0
2018-Jan-12 04:58N 35°54' W 005°30'0 0.0
2018-Jan-12 04:28N 35°54' W 005°30'0 0.0
2018-Jan-12 03:58N 35°54' W 005°30'0 0.0
2018-Jan-12 03:28N 35°54' W 005°30'0 0.0
2018-Jan-12 02:57N 35°54' W 005°30'0 0.0
2018-Jan-12 02:25N 35°54' W 005°30'0 0.0
2018-Jan-12 01:58N 35°54' W 005°30'0 0.0
2018-Jan-12 01:29N 35°54' W 005°30'0 0.0
2018-Jan-12 00:58N 35°54' W 005°30'0 0.0
2018-Jan-12 00:28N 35°54' W 005°30'0 0.0
2018-Jan-11 23:58N 35°54' W 005°30'0 0.1
2018-Jan-11 23:29N 35°54' W 005°30'0 0.0
2018-Jan-11 22:58N 35°54' W 005°30'0 0.0
2018-Jan-11 22:28N 35°54' W 005°30'0 0.1
2018-Jan-11 21:55N 35°54' W 005°30'0 0.0
2018-Jan-11 21:28N 35°54' W 005°30'0 0.0
2018-Jan-11 20:55N 35°54' W 005°30'0 0.0
2018-Jan-11 20:29N 35°54' W 005°30'0 0.0
2018-Jan-11 19:52N 35°54' W 005°30'0 0.0
2018-Jan-11 19:28N 35°54' W 005°30'0 0.0
2018-Jan-11 19:00N 35°54' W 005°30'0 0.0
2018-Jan-11 18:28N 35°54' W 005°30'0 0.0
2018-Jan-11 17:58N 35°54' W 005°30'0 0.0
2018-Jan-11 17:30N 35°54' W 005°30'0 0.0
2018-Jan-11 16:59N 35°54' W 005°30'0 0.3
2018-Jan-11 16:30N 35°54' W 005°30'2 3.9
2018-Jan-11 16:01N 35°56' W 005°29'3 5.0
2018-Jan-11 15:30N 35°55' W 005°32'1 1.2
2018-Jan-11 15:00N 35°54' W 005°33'1 1.4
2018-Jan-11 14:30N 35°54' W 005°32'1 1.8
2018-Jan-11 13:58N 35°55' W 005°33'3 6.8
2018-Jan-11 13:30N 35°54' W 005°37'5 9.2
2018-Jan-11 12:59N 35°53' W 005°43'612.4
2018-Jan-11 12:29N 35°52' W 005°50'912.1
2018-Jan-11 11:44N 35°50' W 006°01'311.3
2018-Jan-11 11:30N 35°49' W 006°04'4 5.2
2018-Jan-11 10:44N 35°46' W 006°07'0 0.9
2018-Jan-11 10:28N 35°46' W 006°08'0 0.8
2018-Jan-11 09:57N 35°46' W 006°08'2 1.5
2018-Jan-11 08:24N 35°45' W 006°11'7 3.0
2018-Jan-11 06:00N 35°41' W 006°18'1 0.1
2018-Jan-10 20:00N 35°42' W 006°18'15511.1 270 / 121026.6 16.012.4
2018-Jan-10 06:00N 36°36' W 009°18'7011.6 320 / 111021.0 5.4 17.014.4
2018-Jan-09 23:59N 37°45' W 009°32'812.5
2018-Jan-09 23:23N 37°52' W 009°30'512.2
2018-Jan-09 23:01N 37°57' W 009°30'611.8
2018-Jan-09 22:31N 38°03' W 009°29'612.1
2018-Jan-09 22:01N 38°09' W 009°29'612.4
2018-Jan-09 21:31N 38°15' W 009°28'612.2
2018-Jan-09 21:01N 38°21' W 009°27'612.2
2018-Jan-09 20:30N 38°27' W 009°26'612.1
2018-Jan-09 20:01N 38°33' W 009°25'611.5
2018-Jan-09 19:31N 38°39' W 009°25'2 4.1
2018-Jan-09 19:00N 38°37' W 009°24'612.9
2018-Jan-09 18:30N 38°41' W 009°17'611.7
2018-Jan-09 18:00N 38°42' W 009°10'0 0.2
2018-Jan-09 17:30N 38°42' W 009°10'0 0.0
2018-Jan-09 16:53N 38°42' W 009°10'0 0.0
2018-Jan-09 16:29N 38°42' W 009°10'0 0.0
2018-Jan-09 15:56N 38°42' W 009°10'0 0.0
2018-Jan-09 15:23N 38°42' W 009°10'0 0.0
2018-Jan-09 14:59N 38°42' W 009°10'0 0.0
2018-Jan-09 14:11N 38°42' W 009°10'0 0.0
2018-Jan-09 13:29N 38°42' W 009°10'0 0.0
2018-Jan-09 12:59N 38°42' W 009°10'0 0.0
2018-Jan-09 12:29N 38°42' W 009°10'0 0.0
2018-Jan-09 11:59N 38°42' W 009°10'0 0.0
2018-Jan-09 11:29N 38°42' W 009°10'0 0.0
2018-Jan-09 10:59N 38°42' W 009°10'0 0.0
2018-Jan-09 10:29N 38°42' W 009°10'0 0.0
2018-Jan-09 09:59N 38°42' W 009°10'0 0.0
2018-Jan-09 09:26N 38°42' W 009°10'0 0.0
2018-Jan-09 08:59N 38°42' W 009°10'0 0.0
2018-Jan-09 08:29N 38°42' W 009°10'0 0.0
2018-Jan-09 07:59N 38°42' W 009°10'0 0.1
2018-Jan-09 07:30N 38°42' W 009°10'1 2.5
2018-Jan-09 06:59N 38°41' W 009°11'510.8
2018-Jan-09 06:31N 38°41' W 009°18'611.8
2018-Jan-09 06:00N 38°38' W 009°24'3 6.7
2018-Jan-09 05:30N 38°41' W 009°25'3 5.3
2018-Jan-09 05:00N 38°39' W 009°26'4 7.4
2018-Jan-09 04:30N 38°36' W 009°29'714.8
2018-Jan-09 04:00N 38°34' W 009°39'815.3
2018-Jan-09 03:30N 38°34' W 009°48'815.5
2018-Jan-09 03:00N 38°33' W 009°58'816.1
2018-Jan-09 02:30N 38°32' W 010°09'4116.4
2018-Jan-09 00:00N 38°24' W 011°00'8617.1 270 / 161015.010.8 14.010.215.0
2018-Jan-08 19:00N 38°12' W 012°48'   270 / 171016.010.8 16.010.315.0
Track history (hours):
 
Tides and Currents Weather Stations Pressure Air Temp Water Temp Dewpoint Dewpoint Depression Visibility Wind Speed Wind Dir Waves Ship Positions

Cap Jackson

Last reported at 2018-Jan-17 19:00 UTC. Time now 2018-Jan-18 04:08 UTC.
Position N 43°24' E 010°06'.

Length 264 m; draft 11 m.

Type: Ship (hazmat cat A). MMSI: 636092020.

Wind from 350 at 18 knots

Barometer 1012.0 mb
Air temperature 12.5 ° C
Visibility: greater than 5.4 NM
Dewpoint 3.6 ° C
Water temperature 13.0 ° C

Date/timePositionNaut miles runAvg speedWind from/ knotsBaromVisibWave heightAir tempDewpointWater temp
2018-Jan-17 19:00N 43°24' E 010°06'7 1.1 350 / 181012.0 5.4 12.5 3.613.0
2018-Jan-17 12:00N 43°18' E 010°12'4 0.4 280 / 421004.4 5.4 16.5 5.313.0
2018-Jan-17 00:00N 43°18' E 010°06'7 1.9 230 / 381003.9 5.4 15.2 9.813.0
2018-Jan-16 20:00N 43°12' E 010°00'13810.6 240 / 601006.0 2.2 15.010.313.0
2018-Jan-16 07:00N 40°54' E 010°00'11816.9 250 / 231018.0 5.4 15.010.313.0
2018-Jan-16 00:00N 39°00' E 009°18'35 2.0 280 / 191024.710.8 13.2 9.313.0
2018-Jan-15 07:00N 38°48' E 008°36'10314.7 270 / 131020.510.8 15.011.3
2018-Jan-15 00:00N 38°54' E 006°24'509101.8 250 / 91020.310.8 14.6 9.413.0
2018-Jan-14 19:00N 38°54' W 004°30'29442.0 260 / 131016.510.8 15.513.214.0
2018-Jan-14 12:00N 39°12' E 001°48'367 7.1 280 / 171016.310.8 15.0 8.314.0
2018-Jan-12 08:37N 36°03' W 004°50'218.5
2018-Jan-12 08:30N 36°03' W 004°52'1019.4
2018-Jan-12 08:00N 36°01' W 005°04'1019.8
2018-Jan-12 07:31N 35°60' W 005°16'1019.6
2018-Jan-12 07:00N 35°57' W 005°27'4 7.1
2018-Jan-12 06:31N 35°54' W 005°30'0 0.1
2018-Jan-12 05:59N 35°54' W 005°30'0 0.0
2018-Jan-12 05:28N 35°54' W 005°30'0 0.0
2018-Jan-12 04:58N 35°54' W 005°30'0 0.0
2018-Jan-12 04:28N 35°54' W 005°30'0 0.0
2018-Jan-12 03:58N 35°54' W 005°30'0 0.0
2018-Jan-12 03:28N 35°54' W 005°30'0 0.0
2018-Jan-12 02:57N 35°54' W 005°30'0 0.0
2018-Jan-12 02:25N 35°54' W 005°30'0 0.0
2018-Jan-12 01:58N 35°54' W 005°30'0 0.0
2018-Jan-12 01:29N 35°54' W 005°30'0 0.0
2018-Jan-12 00:58N 35°54' W 005°30'0 0.0
2018-Jan-12 00:28N 35°54' W 005°30'0 0.0
2018-Jan-11 23:58N 35°54' W 005°30'0 0.1
2018-Jan-11 23:29N 35°54' W 005°30'0 0.0
2018-Jan-11 22:58N 35°54' W 005°30'0 0.0
2018-Jan-11 22:28N 35°54' W 005°30'0 0.1
2018-Jan-11 21:55N 35°54' W 005°30'0 0.0
2018-Jan-11 21:28N 35°54' W 005°30'0 0.0
2018-Jan-11 20:55N 35°54' W 005°30'0 0.0
2018-Jan-11 20:29N 35°54' W 005°30'0 0.0
2018-Jan-11 19:52N 35°54' W 005°30'0 0.0
2018-Jan-11 19:28N 35°54' W 005°30'0 0.0
2018-Jan-11 19:00N 35°54' W 005°30'0 0.0
2018-Jan-11 18:28N 35°54' W 005°30'0 0.0
2018-Jan-11 17:58N 35°54' W 005°30'0 0.0
2018-Jan-11 17:30N 35°54' W 005°30'0 0.0
2018-Jan-11 16:59N 35°54' W 005°30'0 0.3
2018-Jan-11 16:30N 35°54' W 005°30'2 3.9
2018-Jan-11 16:01N 35°56' W 005°29'3 5.0
2018-Jan-11 15:30N 35°55' W 005°32'1 1.2
2018-Jan-11 15:00N 35°54' W 005°33'1 1.4
2018-Jan-11 14:30N 35°54' W 005°32'1 1.8
2018-Jan-11 13:58N 35°55' W 005°33'3 6.8
2018-Jan-11 13:30N 35°54' W 005°37'5 9.2
2018-Jan-11 12:59N 35°53' W 005°43'612.4
2018-Jan-11 12:29N 35°52' W 005°50'912.1
2018-Jan-11 11:44N 35°50' W 006°01'311.3
2018-Jan-11 11:30N 35°49' W 006°04'4 5.2
2018-Jan-11 10:44N 35°46' W 006°07'0 0.9
2018-Jan-11 10:28N 35°46' W 006°08'0 0.8
2018-Jan-11 09:57N 35°46' W 006°08'2 1.5
2018-Jan-11 08:24N 35°45' W 006°11'7 3.0
2018-Jan-11 06:00N 35°41' W 006°18'1 0.1
2018-Jan-10 20:00N 35°42' W 006°18'15511.1 270 / 121026.6 16.012.4
2018-Jan-10 06:00N 36°36' W 009°18'7011.6 320 / 111021.0 5.4 17.014.4
2018-Jan-09 23:59N 37°45' W 009°32'812.5
2018-Jan-09 23:23N 37°52' W 009°30'512.2
2018-Jan-09 23:01N 37°57' W 009°30'611.8
2018-Jan-09 22:31N 38°03' W 009°29'612.1
2018-Jan-09 22:01N 38°09' W 009°29'612.4
2018-Jan-09 21:31N 38°15' W 009°28'612.2
2018-Jan-09 21:01N 38°21' W 009°27'612.2
2018-Jan-09 20:30N 38°27' W 009°26'612.1
2018-Jan-09 20:01N 38°33' W 009°25'611.5
2018-Jan-09 19:31N 38°39' W 009°25'2 4.1
2018-Jan-09 19:00N 38°37' W 009°24'612.9
2018-Jan-09 18:30N 38°41' W 009°17'611.7
2018-Jan-09 18:00N 38°42' W 009°10'0 0.2
2018-Jan-09 17:30N 38°42' W 009°10'0 0.0
2018-Jan-09 16:53N 38°42' W 009°10'0 0.0
2018-Jan-09 16:29N 38°42' W 009°10'0 0.0
2018-Jan-09 15:56N 38°42' W 009°10'0 0.0
2018-Jan-09 15:23N 38°42' W 009°10'0 0.0
2018-Jan-09 14:59N 38°42' W 009°10'0 0.0
2018-Jan-09 14:11N 38°42' W 009°10'0 0.0
2018-Jan-09 13:29N 38°42' W 009°10'0 0.0
2018-Jan-09 12:59N 38°42' W 009°10'0 0.0
2018-Jan-09 12:29N 38°42' W 009°10'0 0.0
2018-Jan-09 11:59N 38°42' W 009°10'0 0.0
2018-Jan-09 11:29N 38°42' W 009°10'0 0.0
2018-Jan-09 10:59N 38°42' W 009°10'0 0.0
2018-Jan-09 10:29N 38°42' W 009°10'0 0.0
2018-Jan-09 09:59N 38°42' W 009°10'0 0.0
2018-Jan-09 09:26N 38°42' W 009°10'0 0.0
2018-Jan-09 08:59N 38°42' W 009°10'0 0.0
2018-Jan-09 08:29N 38°42' W 009°10'0 0.0
2018-Jan-09 07:59N 38°42' W 009°10'0 0.1
2018-Jan-09 07:30N 38°42' W 009°10'1 2.5
2018-Jan-09 06:59N 38°41' W 009°11'510.8
2018-Jan-09 06:31N 38°41' W 009°18'611.8
2018-Jan-09 06:00N 38°38' W 009°24'3 6.7
2018-Jan-09 05:30N 38°41' W 009°25'3 5.3
2018-Jan-09 05:00N 38°39' W 009°26'4 7.4
2018-Jan-09 04:30N 38°36' W 009°29'714.8
2018-Jan-09 04:00N 38°34' W 009°39'815.3
2018-Jan-09 03:30N 38°34' W 009°48'815.5
2018-Jan-09 03:00N 38°33' W 009°58'816.1
2018-Jan-09 02:30N 38°32' W 010°09'4116.4
2018-Jan-09 00:00N 38°24' W 011°00'8617.1 270 / 161015.010.8 14.010.215.0
2018-Jan-08 19:00N 38°12' W 012°48'   270 / 171016.010.8 16.010.315.0

Dump ship's entire track history